ASA291 KSAN-KSFO
Flight info
| Callsign | ASA291 |
|---|---|
| Flight time | 1h 4m |
| Altitude | 34000 |
| Route | PADRZ2 IKAYE RIZIN SPLNT STOKD SERFR SERFR4 |
| Aircraft | B739/M-SDE2E3FGHIRWXY/LB1 |
Departure
| Time | 2026-04-25 21:22 |
|---|---|
| Airport | San Diego International Airport (KSAN) |
Arrival
| Time | 2026-04-25 22:26 |
|---|---|
| Airport | San Francisco International Airport (KSFO) |
| Time | Latitude | Longitude | Altitude | Speed | Heading |
|---|---|---|---|---|---|
| 2026-04-25 20:45 | 32.73395 | -117.20052 | 21 ft | 0 kts | 254° |
| 2026-04-25 21:04 | 32.73397 | -117.20041 | 20 ft | 2 kts | 254° |
| 2026-04-25 21:04 | 32.73400 | -117.20023 | 20 ft | 2 kts | 278° |
| 2026-04-25 21:05 | 32.73396 | -117.20007 | 20 ft | 2 kts | 300° |
| 2026-04-25 21:05 | 32.73386 | -117.19993 | 20 ft | 2 kts | 323° |
| 2026-04-25 21:05 | 32.73372 | -117.19984 | 20 ft | 2 kts | 347° |
| 2026-04-25 21:05 | 32.73358 | -117.19984 | 20 ft | 1 kts | 9° |
| 2026-04-25 21:06 | 32.73351 | -117.19985 | 20 ft | 1 kts | 17° |
| 2026-04-25 21:06 | 32.73349 | -117.19986 | 20 ft | 0 kts | 15° |
| 2026-04-25 21:08 | 32.73367 | -117.19981 | 20 ft | 8 kts | 15° |
| 2026-04-25 21:08 | 32.73421 | -117.19964 | 20 ft | 7 kts | 14° |
| 2026-04-25 21:09 | 32.73478 | -117.19923 | 20 ft | 0 kts | 85° |
| 2026-04-25 21:10 | 32.73478 | -117.19920 | 20 ft | 1 kts | 85° |
| 2026-04-25 21:10 | 32.73477 | -117.19903 | 20 ft | 3 kts | 100° |
| 2026-04-25 21:10 | 32.73473 | -117.19877 | 20 ft | 2 kts | 104° |
| 2026-04-25 21:11 | 32.73463 | -117.19835 | 20 ft | 7 kts | 105° |
| 2026-04-25 21:11 | 32.73447 | -117.19767 | 21 ft | 12 kts | 106° |
| 2026-04-25 21:11 | 32.73415 | -117.19637 | 22 ft | 17 kts | 106° |
| 2026-04-25 21:11 | 32.73380 | -117.19495 | 23 ft | 17 kts | 106° |
| 2026-04-25 21:12 | 32.73347 | -117.19360 | 24 ft | 16 kts | 106° |
| 2026-04-25 21:12 | 32.73315 | -117.19226 | 23 ft | 18 kts | 106° |
| 2026-04-25 21:12 | 32.73281 | -117.19083 | 22 ft | 17 kts | 106° |
| 2026-04-25 21:12 | 32.73259 | -117.18992 | 22 ft | 17 kts | 106° |
| 2026-04-25 21:13 | 32.73215 | -117.18811 | 21 ft | 16 kts | 106° |
| 2026-04-25 21:13 | 32.73183 | -117.18681 | 21 ft | 16 kts | 106° |
| 2026-04-25 21:13 | 32.73148 | -117.18536 | 20 ft | 23 kts | 105° |
| 2026-04-25 21:13 | 32.73098 | -117.18328 | 20 ft | 26 kts | 106° |
| 2026-04-25 21:14 | 32.73048 | -117.18121 | 20 ft | 25 kts | 106° |
| 2026-04-25 21:14 | 32.73001 | -117.17927 | 22 ft | 21 kts | 106° |
| 2026-04-25 21:14 | 32.72976 | -117.17825 | 23 ft | 7 kts | 106° |
| 2026-04-25 21:14 | 32.72966 | -117.17782 | 24 ft | 3 kts | 106° |
| 2026-04-25 21:15 | 32.72959 | -117.17756 | 24 ft | 3 kts | 106° |
| 2026-04-25 21:15 | 32.72952 | -117.17728 | 25 ft | 2 kts | 106° |
| 2026-04-25 21:15 | 32.72950 | -117.17709 | 25 ft | 1 kts | 88° |
| 2026-04-25 21:15 | 32.72951 | -117.17705 | 25 ft | 0 kts | 85° |
| 2026-04-25 21:20 | 32.72957 | -117.17653 | 26 ft | 9 kts | 75° |
| 2026-04-25 21:20 | 32.72975 | -117.17577 | 27 ft | 11 kts | 74° |
| 2026-04-25 21:21 | 32.73008 | -117.17539 | 27 ft | 5 kts | 309° |
| 2026-04-25 21:21 | 32.73022 | -117.17588 | 27 ft | 9 kts | 285° |
| 2026-04-25 21:21 | 32.73100 | -117.17913 | 24 ft | 74 kts | 286° |
| 2026-04-25 21:21 | 32.73301 | -117.18739 | 23 ft | 131 kts | 286° |
| 2026-04-25 21:22 | 32.73595 | -117.19938 | 199 ft | 160 kts | 286° |
| 2026-04-25 21:22 | 32.73917 | -117.21134 | 891 ft | 155 kts | 293° |
| 2026-04-25 21:22 | 32.74607 | -117.22173 | 1377 ft | 167 kts | 308° |
| 2026-04-25 21:22 | 32.75299 | -117.23302 | 1797 ft | 174 kts | 299° |
| 2026-04-25 21:23 | 32.75929 | -117.24567 | 2144 ft | 185 kts | 299° |
| 2026-04-25 21:23 | 32.76646 | -117.25898 | 2443 ft | 200 kts | 302° |
| 2026-04-25 21:23 | 32.77452 | -117.27324 | 2713 ft | 218 kts | 302° |
| 2026-04-25 21:23 | 32.78323 | -117.28880 | 3071 ft | 231 kts | 302° |
| 2026-04-25 21:24 | 32.79220 | -117.30511 | 3549 ft | 240 kts | 302° |
| 2026-04-25 21:24 | 32.80169 | -117.32194 | 3963 ft | 253 kts | 304° |
| 2026-04-25 21:24 | 32.81244 | -117.33900 | 4444 ft | 262 kts | 306° |
| 2026-04-25 21:24 | 32.82355 | -117.35599 | 5050 ft | 265 kts | 307° |
| 2026-04-25 21:25 | 32.83507 | -117.37337 | 5682 ft | 267 kts | 306° |
| 2026-04-25 21:25 | 32.84639 | -117.39067 | 6286 ft | 270 kts | 306° |
| 2026-04-25 21:25 | 32.85787 | -117.40851 | 6957 ft | 271 kts | 305° |
| 2026-04-25 21:25 | 32.86926 | -117.42623 | 7604 ft | 273 kts | 304° |
| 2026-04-25 21:26 | 32.88083 | -117.44418 | 8261 ft | 275 kts | 304° |
| 2026-04-25 21:26 | 32.89235 | -117.46207 | 8956 ft | 277 kts | 303° |
| 2026-04-25 21:26 | 32.90411 | -117.48036 | 9632 ft | 279 kts | 302° |
| 2026-04-25 21:26 | 32.91593 | -117.49877 | 10236 ft | 283 kts | 302° |
| 2026-04-25 21:27 | 32.92815 | -117.51790 | 10598 ft | 297 kts | 302° |
| 2026-04-25 21:27 | 32.94082 | -117.53766 | 10996 ft | 310 kts | 302° |
| 2026-04-25 21:27 | 32.95405 | -117.55830 | 11571 ft | 316 kts | 302° |
| 2026-04-25 21:27 | 32.96740 | -117.57928 | 12247 ft | 319 kts | 301° |
| 2026-04-25 21:28 | 32.98084 | -117.60011 | 12909 ft | 322 kts | 301° |
| 2026-04-25 21:28 | 32.99437 | -117.62110 | 13618 ft | 323 kts | 300° |
| 2026-04-25 21:28 | 33.00814 | -117.64249 | 14324 ft | 325 kts | 301° |
| 2026-04-25 21:28 | 33.02183 | -117.66393 | 14842 ft | 331 kts | 300° |
| 2026-04-25 21:29 | 33.03591 | -117.68597 | 15343 ft | 339 kts | 300° |
| 2026-04-25 21:29 | 33.05020 | -117.70807 | 16162 ft | 338 kts | 301° |
| 2026-04-25 21:29 | 33.06529 | -117.72955 | 16889 ft | 340 kts | 305° |
| 2026-04-25 21:29 | 33.08213 | -117.74950 | 17504 ft | 348 kts | 309° |
| 2026-04-25 21:30 | 33.10062 | -117.76881 | 18082 ft | 355 kts | 311° |
| 2026-04-25 21:30 | 33.11980 | -117.78783 | 18610 ft | 360 kts | 312° |
| 2026-04-25 21:30 | 33.13919 | -117.80690 | 19259 ft | 361 kts | 312° |
| 2026-04-25 21:30 | 33.15205 | -117.81966 | 19610 ft | 364 kts | 311° |
| 2026-04-25 21:31 | 33.17806 | -117.84583 | 20310 ft | 368 kts | 311° |
| 2026-04-25 21:31 | 33.19741 | -117.86554 | 20810 ft | 370 kts | 310° |
| 2026-04-25 21:31 | 33.21642 | -117.88649 | 21313 ft | 371 kts | 308° |
| 2026-04-25 21:31 | 33.23461 | -117.90810 | 21773 ft | 374 kts | 306° |
| 2026-04-25 21:32 | 33.25285 | -117.93037 | 22271 ft | 376 kts | 306° |
| 2026-04-25 21:32 | 33.27123 | -117.95284 | 22724 ft | 379 kts | 306° |
| 2026-04-25 21:32 | 33.28957 | -117.97517 | 23178 ft | 382 kts | 307° |
| 2026-04-25 21:32 | 33.30831 | -117.99781 | 23745 ft | 383 kts | 307° |
| 2026-04-25 21:33 | 33.32721 | -118.02054 | 24196 ft | 386 kts | 307° |
| 2026-04-25 21:33 | 33.34595 | -118.04305 | 24654 ft | 388 kts | 307° |
| 2026-04-25 21:33 | 33.36510 | -118.06601 | 25087 ft | 391 kts | 306° |
| 2026-04-25 21:33 | 33.38446 | -118.08923 | 25478 ft | 395 kts | 306° |
| 2026-04-25 21:34 | 33.40375 | -118.11237 | 25967 ft | 395 kts | 306° |
| 2026-04-25 21:34 | 33.42307 | -118.13551 | 26409 ft | 397 kts | 306° |
| 2026-04-25 21:34 | 33.44276 | -118.15915 | 26816 ft | 399 kts | 306° |
| 2026-04-25 21:34 | 33.46230 | -118.18259 | 27219 ft | 401 kts | 306° |
| 2026-04-25 21:35 | 33.48194 | -118.20617 | 27602 ft | 404 kts | 306° |
| 2026-04-25 21:35 | 33.50198 | -118.23030 | 27883 ft | 409 kts | 306° |
| 2026-04-25 21:35 | 33.52195 | -118.25433 | 28338 ft | 409 kts | 306° |
| 2026-04-25 21:35 | 33.54216 | -118.27859 | 28801 ft | 409 kts | 306° |
| 2026-04-25 21:36 | 33.56223 | -118.30276 | 29103 ft | 412 kts | 305° |
| 2026-04-25 21:36 | 33.58239 | -118.32705 | 29453 ft | 414 kts | 306° |
| 2026-04-25 21:36 | 33.60268 | -118.35153 | 29835 ft | 415 kts | 305° |
| 2026-04-25 21:36 | 33.62313 | -118.37624 | 30153 ft | 418 kts | 306° |
| 2026-04-25 21:37 | 33.64355 | -118.40093 | 30429 ft | 420 kts | 306° |
| 2026-04-25 21:37 | 33.65723 | -118.41747 | 30670 ft | 421 kts | 305° |
| 2026-04-25 21:37 | 33.68478 | -118.45081 | 31050 ft | 423 kts | 305° |
| 2026-04-25 21:37 | 33.70574 | -118.47614 | 31376 ft | 424 kts | 305° |
| 2026-04-25 21:38 | 33.72649 | -118.50127 | 31579 ft | 429 kts | 305° |
| 2026-04-25 21:38 | 33.74740 | -118.52666 | 31853 ft | 431 kts | 305° |
| 2026-04-25 21:38 | 33.76891 | -118.55278 | 32133 ft | 432 kts | 305° |
| 2026-04-25 21:38 | 33.79001 | -118.57838 | 32466 ft | 433 kts | 305° |
| 2026-04-25 21:39 | 33.81159 | -118.60460 | 32712 ft | 435 kts | 305° |
| 2026-04-25 21:39 | 33.83306 | -118.63070 | 32979 ft | 437 kts | 305° |
| 2026-04-25 21:39 | 33.85508 | -118.65752 | 33194 ft | 440 kts | 304° |
| 2026-04-25 21:39 | 33.87699 | -118.68423 | 33489 ft | 441 kts | 304° |
| 2026-04-25 21:40 | 33.89878 | -118.71078 | 33834 ft | 441 kts | 305° |
| 2026-04-25 21:40 | 33.92083 | -118.73764 | 33948 ft | 444 kts | 304° |
| 2026-04-25 21:40 | 33.96455 | -118.79092 | 33939 ft | 438 kts | 305° |
| 2026-04-25 21:41 | 34.00727 | -118.84309 | 33942 ft | 439 kts | 304° |
| 2026-04-25 21:41 | 34.05054 | -118.89614 | 33935 ft | 440 kts | 305° |
| 2026-04-25 21:42 | 34.09367 | -118.94907 | 33941 ft | 441 kts | 304° |
| 2026-04-25 21:42 | 34.13536 | -119.00288 | 33936 ft | 432 kts | 300° |
| 2026-04-25 21:43 | 34.17007 | -119.06117 | 33927 ft | 426 kts | 294° |
| 2026-04-25 21:43 | 34.20188 | -119.12225 | 33931 ft | 427 kts | 293° |
| 2026-04-25 21:44 | 34.23287 | -119.18311 | 33935 ft | 428 kts | 292° |
| 2026-04-25 21:45 | 34.27994 | -119.27531 | 33939 ft | 429 kts | 293° |
| 2026-04-25 21:45 | 34.31132 | -119.33665 | 33929 ft | 428 kts | 294° |
| 2026-04-25 21:46 | 34.34267 | -119.39793 | 33931 ft | 428 kts | 293° |
| 2026-04-25 21:46 | 34.37415 | -119.45960 | 33935 ft | 434 kts | 294° |
| 2026-04-25 21:47 | 34.40671 | -119.52110 | 33924 ft | 434 kts | 297° |
| 2026-04-25 21:47 | 34.44605 | -119.57778 | 33925 ft | 444 kts | 305° |
| 2026-04-25 21:48 | 34.48956 | -119.63120 | 33920 ft | 446 kts | 307° |
| 2026-04-25 21:48 | 34.53383 | -119.68438 | 33925 ft | 446 kts | 307° |
| 2026-04-25 21:49 | 34.57811 | -119.73814 | 33926 ft | 448 kts | 307° |
| 2026-04-25 21:49 | 34.62208 | -119.79205 | 33924 ft | 449 kts | 307° |
| 2026-04-25 21:50 | 34.66574 | -119.84590 | 33923 ft | 450 kts | 307° |
| 2026-04-25 21:50 | 34.70935 | -119.89983 | 33924 ft | 447 kts | 307° |
| 2026-04-25 21:51 | 34.75311 | -119.95411 | 33922 ft | 451 kts | 307° |
| 2026-04-25 21:51 | 34.79727 | -120.00906 | 33913 ft | 449 kts | 307° |
| 2026-04-25 21:52 | 34.84107 | -120.06358 | 33913 ft | 451 kts | 307° |
| 2026-04-25 21:52 | 34.88477 | -120.11812 | 33934 ft | 451 kts | 307° |
| 2026-04-25 21:53 | 34.92867 | -120.17297 | 33939 ft | 452 kts | 307° |
| 2026-04-25 21:53 | 34.97290 | -120.22832 | 33931 ft | 451 kts | 308° |
| 2026-04-25 21:54 | 35.01682 | -120.28336 | 33935 ft | 452 kts | 308° |
| 2026-04-25 21:54 | 35.06043 | -120.33810 | 33941 ft | 452 kts | 308° |
| 2026-04-25 21:55 | 35.10459 | -120.39301 | 33935 ft | 454 kts | 309° |
| 2026-04-25 21:55 | 35.15094 | -120.44569 | 33934 ft | 457 kts | 311° |
| 2026-04-25 21:56 | 35.19852 | -120.49805 | 33924 ft | 459 kts | 312° |
| 2026-04-25 21:56 | 35.24613 | -120.55068 | 33928 ft | 459 kts | 311° |
| 2026-04-25 21:57 | 35.29344 | -120.60340 | 33923 ft | 459 kts | 311° |
| 2026-04-25 21:57 | 35.34051 | -120.65623 | 33925 ft | 460 kts | 311° |
| 2026-04-25 21:58 | 35.38775 | -120.70946 | 33932 ft | 458 kts | 311° |
| 2026-04-25 21:58 | 35.43502 | -120.76287 | 33918 ft | 459 kts | 311° |
| 2026-04-25 21:59 | 35.48261 | -120.81648 | 33923 ft | 459 kts | 312° |
| 2026-04-25 21:59 | 35.53256 | -120.86609 | 33922 ft | 464 kts | 317° |
| 2026-04-25 22:00 | 35.61049 | -120.93716 | 33911 ft | 464 kts | 318° |
| 2026-04-25 22:00 | 35.66257 | -120.98476 | 33915 ft | 466 kts | 318° |
| 2026-04-25 22:01 | 35.71447 | -121.03267 | 33926 ft | 466 kts | 317° |
| 2026-04-25 22:01 | 35.75771 | -121.07285 | 33924 ft | 468 kts | 317° |
| 2026-04-25 22:02 | 35.81808 | -121.12917 | 33918 ft | 466 kts | 317° |
| 2026-04-25 22:02 | 35.86978 | -121.17755 | 33922 ft | 466 kts | 318° |
| 2026-04-25 22:03 | 35.92146 | -121.22601 | 33915 ft | 465 kts | 318° |
| 2026-04-25 22:03 | 35.97314 | -121.27454 | 33873 ft | 462 kts | 318° |
| 2026-04-25 22:04 | 35.99857 | -121.29844 | 33546 ft | 457 kts | 318° |
| 2026-04-25 22:04 | 36.02365 | -121.32202 | 33082 ft | 455 kts | 318° |
| 2026-04-25 22:04 | 36.04875 | -121.34566 | 32454 ft | 457 kts | 318° |
| 2026-04-25 22:04 | 36.07415 | -121.36914 | 31691 ft | 461 kts | 320° |
| 2026-04-25 22:05 | 36.10098 | -121.39187 | 31009 ft | 463 kts | 323° |
| 2026-04-25 22:05 | 36.12796 | -121.41324 | 30515 ft | 460 kts | 324° |
| 2026-04-25 22:05 | 36.15539 | -121.43435 | 29945 ft | 457 kts | 325° |
| 2026-04-25 22:05 | 36.18215 | -121.45475 | 29390 ft | 453 kts | 326° |
| 2026-04-25 22:06 | 36.20864 | -121.47497 | 28860 ft | 449 kts | 326° |
| 2026-04-25 22:06 | 36.23526 | -121.49537 | 28331 ft | 444 kts | 326° |
| 2026-04-25 22:06 | 36.26125 | -121.51540 | 27813 ft | 440 kts | 326° |
| 2026-04-25 22:06 | 36.28691 | -121.53529 | 27294 ft | 436 kts | 326° |
| 2026-04-25 22:07 | 36.31247 | -121.55518 | 26787 ft | 428 kts | 326° |
| 2026-04-25 22:07 | 36.32904 | -121.56811 | 26454 ft | 424 kts | 326° |
| 2026-04-25 22:07 | 36.36175 | -121.59370 | 25782 ft | 415 kts | 326° |
| 2026-04-25 22:07 | 36.38604 | -121.61275 | 25282 ft | 408 kts | 326° |
| 2026-04-25 22:08 | 36.40985 | -121.63145 | 24790 ft | 402 kts | 326° |
| 2026-04-25 22:08 | 36.43339 | -121.64997 | 24303 ft | 399 kts | 326° |
| 2026-04-25 22:08 | 36.45646 | -121.66817 | 23823 ft | 397 kts | 326° |
| 2026-04-25 22:08 | 36.47991 | -121.68668 | 23341 ft | 396 kts | 326° |
| 2026-04-25 22:09 | 36.50296 | -121.70488 | 22917 ft | 393 kts | 326° |
| 2026-04-25 22:09 | 36.52602 | -121.72308 | 22446 ft | 390 kts | 326° |
| 2026-04-25 22:09 | 36.54888 | -121.74114 | 21953 ft | 389 kts | 326° |
| 2026-04-25 22:09 | 36.57147 | -121.75902 | 21464 ft | 387 kts | 326° |
| 2026-04-25 22:10 | 36.59418 | -121.77703 | 20966 ft | 385 kts | 326° |
| 2026-04-25 22:10 | 36.61646 | -121.79468 | 20490 ft | 383 kts | 327° |
| 2026-04-25 22:10 | 36.63898 | -121.81252 | 19992 ft | 382 kts | 327° |
| 2026-04-25 22:10 | 36.66138 | -121.83028 | 19497 ft | 380 kts | 327° |
| 2026-04-25 22:11 | 36.68362 | -121.84795 | 19000 ft | 379 kts | 327° |
| 2026-04-25 22:11 | 36.70579 | -121.86556 | 18501 ft | 378 kts | 328° |
| 2026-04-25 22:11 | 36.72834 | -121.88238 | 17990 ft | 376 kts | 332° |
| 2026-04-25 22:11 | 36.75164 | -121.89597 | 17493 ft | 374 kts | 340° |
| 2026-04-25 22:12 | 36.77642 | -121.90572 | 16990 ft | 372 kts | 346° |
| 2026-04-25 22:12 | 36.80142 | -121.91312 | 16480 ft | 368 kts | 349° |
| 2026-04-25 22:12 | 36.82632 | -121.91958 | 15999 ft | 361 kts | 349° |
| 2026-04-25 22:12 | 36.84246 | -121.92364 | 15680 ft | 356 kts | 349° |
| 2026-04-25 22:13 | 36.87435 | -121.93182 | 15052 ft | 347 kts | 349° |
| 2026-04-25 22:13 | 36.89780 | -121.93812 | 14584 ft | 341 kts | 348° |
| 2026-04-25 22:13 | 36.92077 | -121.94446 | 14180 ft | 333 kts | 348° |
| 2026-04-25 22:13 | 36.94308 | -121.95066 | 13665 ft | 330 kts | 348° |
| 2026-04-25 22:14 | 36.96532 | -121.95743 | 13188 ft | 325 kts | 345° |
| 2026-04-25 22:14 | 36.98685 | -121.96549 | 12737 ft | 319 kts | 342° |
| 2026-04-25 22:14 | 37.00763 | -121.97395 | 12300 ft | 315 kts | 342° |
| 2026-04-25 22:14 | 37.02836 | -121.98247 | 11862 ft | 310 kts | 342° |
| 2026-04-25 22:15 | 37.04879 | -121.99073 | 11435 ft | 306 kts | 342° |
| 2026-04-25 22:15 | 37.06871 | -121.99863 | 11016 ft | 301 kts | 342° |
| 2026-04-25 22:15 | 37.08866 | -122.00630 | 10600 ft | 295 kts | 343° |
| 2026-04-25 22:16 | 37.12654 | -122.02116 | 10244 ft | 274 kts | 342° |
| 2026-04-25 22:16 | 37.14466 | -122.02834 | 10159 ft | 277 kts | 342° |
| 2026-04-25 22:16 | 37.16317 | -122.03565 | 10040 ft | 279 kts | 342° |
| 2026-04-25 22:16 | 37.18167 | -122.04289 | 9732 ft | 281 kts | 342° |
| 2026-04-25 22:17 | 37.20026 | -122.05022 | 9358 ft | 277 kts | 342° |
| 2026-04-25 22:17 | 37.21841 | -122.05739 | 9021 ft | 273 kts | 342° |
| 2026-04-25 22:17 | 37.23652 | -122.06446 | 8681 ft | 269 kts | 342° |
| 2026-04-25 22:17 | 37.25419 | -122.07135 | 8347 ft | 265 kts | 342° |
| 2026-04-25 22:18 | 37.27162 | -122.07817 | 8028 ft | 261 kts | 341° |
| 2026-04-25 22:18 | 37.28898 | -122.08501 | 7714 ft | 267 kts | 341° |
| 2026-04-25 22:18 | 37.30676 | -122.09203 | 7249 ft | 269 kts | 341° |
| 2026-04-25 22:18 | 37.32446 | -122.09901 | 6900 ft | 265 kts | 341° |
| 2026-04-25 22:19 | 37.34193 | -122.10590 | 6584 ft | 261 kts | 341° |
| 2026-04-25 22:19 | 37.35931 | -122.11283 | 6260 ft | 257 kts | 341° |
| 2026-04-25 22:19 | 37.37602 | -122.11950 | 5988 ft | 252 kts | 342° |
| 2026-04-25 22:19 | 37.39272 | -122.12560 | 5664 ft | 250 kts | 343° |
| 2026-04-25 22:20 | 37.40948 | -122.13126 | 5337 ft | 248 kts | 343° |
| 2026-04-25 22:20 | 37.42593 | -122.13680 | 5043 ft | 243 kts | 343° |
| 2026-04-25 22:20 | 37.44218 | -122.14230 | 4742 ft | 238 kts | 343° |
| 2026-04-25 22:20 | 37.45802 | -122.14772 | 4454 ft | 234 kts | 342° |
| 2026-04-25 22:21 | 37.47354 | -122.15308 | 4170 ft | 230 kts | 342° |
| 2026-04-25 22:21 | 37.48903 | -122.15842 | 3890 ft | 226 kts | 342° |
| 2026-04-25 22:21 | 37.50403 | -122.16358 | 3617 ft | 222 kts | 342° |
| 2026-04-25 22:21 | 37.51883 | -122.16866 | 3351 ft | 218 kts | 342° |
| 2026-04-25 22:22 | 37.53271 | -122.17525 | 3095 ft | 210 kts | 326° |
| 2026-04-25 22:22 | 37.54239 | -122.18810 | 2867 ft | 198 kts | 290° |
| 2026-04-25 22:22 | 37.54650 | -122.20422 | 2659 ft | 193 kts | 289° |
| 2026-04-25 22:22 | 37.55234 | -122.21934 | 2413 ft | 190 kts | 298° |
| 2026-04-25 22:23 | 37.55896 | -122.23360 | 2148 ft | 187 kts | 297° |
| 2026-04-25 22:23 | 37.56498 | -122.24783 | 1911 ft | 182 kts | 295° |
| 2026-04-25 22:23 | 37.57069 | -122.26156 | 1674 ft | 172 kts | 296° |
| 2026-04-25 22:23 | 37.57628 | -122.27463 | 1479 ft | 164 kts | 296° |
| 2026-04-25 22:24 | 37.58155 | -122.28710 | 1244 ft | 158 kts | 295° |
| 2026-04-25 22:24 | 37.58658 | -122.29906 | 1060 ft | 155 kts | 296° |
| 2026-04-25 22:24 | 37.59159 | -122.31086 | 852 ft | 151 kts | 296° |
| 2026-04-25 22:24 | 37.59653 | -122.32256 | 660 ft | 151 kts | 295° |
| 2026-04-25 22:25 | 37.60141 | -122.33417 | 467 ft | 151 kts | 295° |
| 2026-04-25 22:25 | 37.60636 | -122.34580 | 305 ft | 151 kts | 296° |
| 2026-04-25 22:25 | 37.61134 | -122.35748 | 108 ft | 152 kts | 296° |
| 2026-04-25 22:25 | 37.61615 | -122.36890 | 12 ft | 125 kts | 297° |
| 2026-04-25 22:26 | 37.61909 | -122.37592 | 23 ft | 58 kts | 297° |
| 2026-04-25 22:26 | 37.61997 | -122.37872 | 29 ft | 16 kts | 258° |
| 2026-04-25 22:26 | 37.61950 | -122.37955 | 30 ft | 8 kts | 228° |
| 2026-04-25 22:26 | 37.61904 | -122.37993 | 31 ft | 8 kts | 190° |
| 2026-04-25 22:27 | 37.61849 | -122.37983 | 31 ft | 7 kts | 156° |
| 2026-04-25 22:27 | 37.61794 | -122.37953 | 30 ft | 8 kts | 162° |
| 2026-04-25 22:27 | 37.61734 | -122.37944 | 30 ft | 8 kts | 180° |
| 2026-04-25 22:27 | 37.61676 | -122.37956 | 30 ft | 7 kts | 198° |
| 2026-04-25 22:28 | 37.61631 | -122.37983 | 31 ft | 6 kts | 211° |
| 2026-04-25 22:28 | 37.61575 | -122.38023 | 31 ft | 10 kts | 208° |
| 2026-04-25 22:28 | 37.61503 | -122.38071 | 31 ft | 13 kts | 208° |
| 2026-04-25 22:28 | 37.61393 | -122.38148 | 31 ft | 18 kts | 210° |
| 2026-04-25 22:29 | 37.61335 | -122.38216 | 31 ft | 6 kts | 284° |
| 2026-04-25 22:29 | 37.61359 | -122.38266 | 31 ft | 7 kts | 309° |
| 2026-04-25 22:29 | 37.61379 | -122.38317 | 31 ft | 6 kts | 270° |
| 2026-04-25 22:30 | 37.61369 | -122.38386 | 31 ft | 0 kts | 255° |